DTTA/TUN METAR and TAF weather

Enter ICAO airport designator
Station Type Date Time Source
DTTA METAR 2019/11/18 12:00 UTC NOAA

DTTA 181200Z 17016KT 9999 FEW026 18/03 Q1012


Station Type Date Time Source
DTTA Decoded METAR 2019/11/18 12:00 UTC NOAA

Tunis-Carthage, Tunisia (DTTA) 36-50N 010-14E 4M
Nov 18, 2019 - 07:00 AM EST / 2019.11.18 1200 UTC
Wind: from the S (170 degrees) at 18 MPH (16 KT):0
Visibility: greater than 7 mile(s):0
Sky conditions: mostly clear
Temperature: 64 F (18 C)
Dew Point: 37 F (3 C)
Relative Humidity: 36%
Pressure (altimeter): 29.88 in. Hg (1012 hPa)
ob: DTTA 181200Z 17016KT 9999 FEW026 18/03 Q1012
cycle: 12

Station Type Date Time Source
DTTA TAF 2019/11/18 12:00 UTC NOAA

TAF DTTA 181100Z 1812/1912 19017KT 9999 FEW026 PROB40
TEMPO 1902/1912 20015G25KT 4000 RA SCT023TCU
BECMG 1906/1908 20010KT 9999 SCT023 SCT030

Example: see airport list